sensor_id;sensor_type;location;lat;lon;timestamp;pressure;altitude;pressure_sealevel;temperature;humidity
22830;BME280;11581;51.250;6.778;2023-04-06T00:00:07;101358.41;;;8.01;38.29
22830;BME280;11581;51.250;6.778;2023-04-06T00:02:35;101380.28;;;8.05;38.24
22830;BME280;11581;51.250;6.778;2023-04-06T00:05:02;101364.56;;;8.02;38.56
22830;BME280;11581;51.250;6.778;2023-04-06T00:07:28;101326.94;;;7.73;38.60
22830;BME280;11581;51.250;6.778;2023-04-06T00:09:55;101400.63;;;8.17;38.80
22830;BME280;11581;51.250;6.778;2023-04-06T00:12:21;101395.53;;;8.14;38.68
22830;BME280;11581;51.250;6.778;2023-04-06T00:14:48;101394.78;;;8.12;39.10
22830;BME280;11581;51.250;6.778;2023-04-06T00:17:14;101382.19;;;8.03;39.25
22830;BME280;11581;51.250;6.778;2023-04-06T00:19:41;101400.56;;;8.06;39.39
22830;BME280;11581;51.250;6.778;2023-04-06T00:22:07;101396.44;;;8.02;39.56
22830;BME280;11581;51.250;6.778;2023-04-06T00:24:34;101351.91;;;7.71;39.52
22830;BME280;11581;51.250;6.778;2023-04-06T00:27:00;101387.13;;;7.96;39.66
22830;BME280;11581;51.250;6.778;2023-04-06T00:29:27;101365.16;;;7.71;39.78
22830;BME280;11581;51.250;6.778;2023-04-06T00:31:53;101382.84;;;7.83;40.22
22830;BME280;11581;51.250;6.778;2023-04-06T00:34:20;101390.59;;;7.86;40.29
22830;BME280;11581;51.250;6.778;2023-04-06T00:36:47;101392.72;;;7.81;40.46
22830;BME280;11581;51.250;6.778;2023-04-06T00:39:13;101201.81;;;6.61;40.45
22830;BME280;11581;51.250;6.778;2023-04-06T00:41:46;101387.03;;;7.74;40.97
22830;BME280;11581;51.250;6.778;2023-04-06T00:44:13;101331.16;;;7.41;40.77
22830;BME280;11581;51.250;6.778;2023-04-06T00:46:40;101375.88;;;7.58;40.78
22830;BME280;11581;51.250;6.778;2023-04-06T00:49:07;101379.66;;;7.67;41.28
22830;BME280;11581;51.250;6.778;2023-04-06T00:51:33;101374.56;;;7.64;40.95
22830;BME280;11581;51.250;6.778;2023-04-06T00:54:00;101378.28;;;7.61;41.42
22830;BME280;11581;51.250;6.778;2023-04-06T00:56:29;101380.31;;;7.58;41.38
22830;BME280;11581;51.250;6.778;2023-04-06T00:58:56;101373.56;;;7.54;41.45
22830;BME280;11581;51.250;6.778;2023-04-06T01:01:23;101363.16;;;7.51;41.50
22830;BME280;11581;51.250;6.778;2023-04-06T01:03:52;101373.19;;;7.47;41.94
22830;BME280;11581;51.250;6.778;2023-04-06T01:06:20;101367.22;;;7.44;41.97
22830;BME280;11581;51.250;6.778;2023-04-06T01:08:56;101287.59;;;6.97;42.15
22830;BME280;11581;51.250;6.778;2023-04-06T01:11:24;101310.69;;;7.07;41.93
22830;BME280;11581;51.250;6.778;2023-04-06T01:13:52;101353.91;;;7.33;42.34
22830;BME280;11581;51.250;6.778;2023-04-06T01:16:25;101316.00;;;7.07;42.30
22830;BME280;11581;51.250;6.778;2023-04-06T01:19:17;101348.31;;;7.25;42.53
22830;BME280;11581;51.250;6.778;2023-04-06T01:21:49;101352.97;;;7.21;42.78
22830;BME280;11581;51.250;6.778;2023-04-06T01:24:30;101336.16;;;7.10;43.08
22830;BME280;11581;51.250;6.778;2023-04-06T01:27:03;101316.06;;;6.95;42.79
22830;BME280;11581;51.250;6.778;2023-04-06T01:30:05;101349.41;;;7.10;42.77
22830;BME280;11581;51.250;6.778;2023-04-06T01:32:52;101345.28;;;7.06;43.24
22830;BME280;11581;51.250;6.778;2023-04-06T01:35:33;101308.22;;;6.80;43.41
22830;BME280;11581;51.250;6.778;2023-04-06T01:38:12;101330.47;;;6.90;43.12
22830;BME280;11581;51.250;6.778;2023-04-06T01:40:38;101339.19;;;6.93;43.49
22830;BME280;11581;51.250;6.778;2023-04-06T01:43:05;101332.41;;;6.88;43.48
22830;BME280;11581;51.250;6.778;2023-04-06T01:45:38;101318.00;;;6.67;43.44
22830;BME280;11581;51.250;6.778;2023-04-06T01:48:18;101330.19;;;6.82;43.83
22830;BME280;11581;51.250;6.778;2023-04-06T01:50:45;101341.00;;;6.79;44.25
22830;BME280;11581;51.250;6.778;2023-04-06T01:53:16;101327.97;;;6.76;44.26
22830;BME280;11581;51.250;6.778;2023-04-06T01:55:44;101293.78;;;6.48;44.13
22830;BME280;11581;51.250;6.778;2023-04-06T01:58:33;101306.16;;;6.60;44.48
22830;BME280;11581;51.250;6.778;2023-04-06T02:01:01;101312.66;;;6.56;44.43
22830;BME280;11581;51.250;6.778;2023-04-06T02:03:32;101247.50;;;6.16;44.82
22830;BME280;11581;51.250;6.778;2023-04-06T02:06:05;101337.09;;;6.60;44.79
22830;BME280;11581;51.250;6.778;2023-04-06T02:08:36;101331.19;;;6.56;44.86
22830;BME280;11581;51.250;6.778;2023-04-06T02:11:03;101326.09;;;6.53;44.96
22830;BME280;11581;51.250;6.778;2023-04-06T02:13:36;101325.47;;;6.50;45.12
22830;BME280;11581;51.250;6.778;2023-04-06T02:16:03;101322.19;;;6.46;45.15
22830;BME280;11581;51.250;6.778;2023-04-06T02:18:30;101265.53;;;6.11;45.44
22830;BME280;11581;51.250;6.778;2023-04-06T02:20:57;101299.22;;;6.34;45.58
22830;BME280;11581;51.250;6.778;2023-04-06T02:23:23;101255.38;;;6.05;45.34
22830;BME280;11581;51.250;6.778;2023-04-06T02:25:50;101321.88;;;6.38;45.14
22830;BME280;11581;51.250;6.778;2023-04-06T02:28:16;101306.41;;;6.32;45.21
22830;BME280;11581;51.250;6.778;2023-04-06T02:30:43;101313.19;;;6.36;45.34
22830;BME280;11581;51.250;6.778;2023-04-06T02:33:10;101307.16;;;6.34;45.20
22830;BME280;11581;51.250;6.778;2023-04-06T02:35:44;101280.69;;;6.22;45.52
22830;BME280;11581;51.250;6.778;2023-04-06T02:38:11;101336.50;;;6.31;45.58
22830;BME280;11581;51.250;6.778;2023-04-06T02:40:37;101272.50;;;6.12;45.60
22830;BME280;11581;51.250;6.778;2023-04-06T02:43:24;101296.47;;;6.23;45.45
22830;BME280;11581;51.250;6.778;2023-04-06T02:45:59;101320.81;;;6.28;45.04
22830;BME280;11581;51.250;6.778;2023-04-06T02:48:25;101295.72;;;6.21;45.35
22830;BME280;11581;51.250;6.778;2023-04-06T02:50:52;101307.69;;;6.27;45.52
22830;BME280;11581;51.250;6.778;2023-04-06T02:53:18;101258.53;;;5.98;45.83
22830;BME280;11581;51.250;6.778;2023-04-06T02:55:45;101283.09;;;6.12;45.58
22830;BME280;11581;51.250;6.778;2023-04-06T02:58:12;101295.94;;;6.18;45.22
22830;BME280;11581;51.250;6.778;2023-04-06T03:00:45;101300.91;;;6.23;45.32
22830;BME280;11581;51.250;6.778;2023-04-06T03:03:12;101294.75;;;6.22;45.50
22830;BME280;11581;51.250;6.778;2023-04-06T03:05:40;101301.00;;;6.21;45.53
22830;BME280;11581;51.250;6.778;2023-04-06T03:08:07;101301.00;;;6.21;45.49
22830;BME280;11581;51.250;6.778;2023-04-06T03:10:51;101298.38;;;6.21;44.94
22830;BME280;11581;51.250;6.778;2023-04-06T03:13:18;101307.06;;;6.23;45.18
22830;BME280;11581;51.250;6.778;2023-04-06T03:15:50;101301.78;;;6.23;45.22
22830;BME280;11581;51.250;6.778;2023-04-06T03:18:24;101253.34;;;5.96;45.65
22830;BME280;11581;51.250;6.778;2023-04-06T03:20:52;101216.78;;;5.76;45.45
22830;BME280;11581;51.250;6.778;2023-04-06T03:23:21;101296.69;;;6.20;45.58
22830;BME280;11581;51.250;6.778;2023-04-06T03:25:52;101287.22;;;6.16;45.33
22830;BME280;11581;51.250;6.778;2023-04-06T03:28:20;101298.56;;;6.18;45.49
22830;BME280;11581;51.250;6.778;2023-04-06T03:30:54;101275.69;;;6.05;45.22
22830;BME280;11581;51.250;6.778;2023-04-06T03:33:39;101289.78;;;6.18;45.69
22830;BME280;11581;51.250;6.778;2023-04-06T03:36:08;101208.00;;;5.63;45.58
22830;BME280;11581;51.250;6.778;2023-04-06T03:38:39;101290.84;;;6.15;45.51
22830;BME280;11581;51.250;6.778;2023-04-06T03:41:10;101289.47;;;6.10;45.52
22830;BME280;11581;51.250;6.778;2023-04-06T03:43:38;101286.50;;;6.14;45.54
22830;BME280;11581;51.250;6.778;2023-04-06T03:46:05;101231.81;;;5.76;45.62
22830;BME280;11581;51.250;6.778;2023-04-06T03:48:31;101257.28;;;5.91;45.75
22830;BME280;11581;51.250;6.778;2023-04-06T03:51:02;101289.16;;;6.14;45.56
22830;BME280;11581;51.250;6.778;2023-04-06T03:53:29;101270.09;;;5.97;45.67
22830;BME280;11581;51.250;6.778;2023-04-06T03:55:55;101211.69;;;5.73;45.71
22830;BME280;11581;51.250;6.778;2023-04-06T03:58:22;101251.13;;;5.90;45.84
22830;BME280;11581;51.250;6.778;2023-04-06T04:00:48;101288.41;;;6.12;45.99
22830;BME280;11581;51.250;6.778;2023-04-06T04:03:15;101282.59;;;6.07;45.93
22830;BME280;11581;51.250;6.778;2023-04-06T04:05:42;101269.03;;;5.99;46.02
22830;BME280;11581;51.250;6.778;2023-04-06T04:08:10;101284.19;;;6.10;46.31
22830;BME280;11581;51.250;6.778;2023-04-06T04:10:37;101251.56;;;5.84;45.90
22830;BME280;11581;51.250;6.778;2023-04-06T04:13:03;101245.78;;;5.78;46.31
22830;BME280;11581;51.250;6.778;2023-04-06T04:15:30;101275.28;;;5.98;46.10
22830;BME280;11581;51.250;6.778;2023-04-06T04:17:57;101234.47;;;5.76;46.39
22830;BME280;11581;51.250;6.778;2023-04-06T04:20:23;101278.25;;;5.94;46.24
22830;BME280;11581;51.250;6.778;2023-04-06T04:22:50;101290.84;;;6.03;46.25
22830;BME280;11581;51.250;6.778;2023-04-06T04:25:17;101287.75;;;5.96;46.28
22830;BME280;11581;51.250;6.778;2023-04-06T04:27:47;101219.97;;;5.56;46.75
22830;BME280;11581;51.250;6.778;2023-04-06T04:30:13;101292.84;;;5.99;46.67
22830;BME280;11581;51.250;6.778;2023-04-06T04:32:40;101271.47;;;5.90;46.53
22830;BME280;11581;51.250;6.778;2023-04-06T04:35:09;101219.00;;;5.57;46.51
22830;BME280;11581;51.250;6.778;2023-04-06T04:37:40;101285.13;;;5.96;46.63
22830;BME280;11581;51.250;6.778;2023-04-06T04:40:07;101291.38;;;5.95;46.65
22830;BME280;11581;51.250;6.778;2023-04-06T04:42:44;101279.50;;;5.88;46.47
22830;BME280;11581;51.250;6.778;2023-04-06T04:45:18;101287.03;;;5.94;45.66
22830;BME280;11581;51.250;6.778;2023-04-06T04:47:45;101257.44;;;5.75;46.47
22830;BME280;11581;51.250;6.778;2023-04-06T04:50:14;101291.59;;;5.92;46.43
22830;BME280;11581;51.250;6.778;2023-04-06T04:52:44;101285.44;;;5.92;46.35
22830;BME280;11581;51.250;6.778;2023-04-06T04:55:18;101291.59;;;5.92;45.94
22830;BME280;11581;51.250;6.778;2023-04-06T04:57:47;101281.84;;;5.93;46.31
22830;BME280;11581;51.250;6.778;2023-04-06T05:00:16;101283.09;;;5.87;46.27
22830;BME280;11581;51.250;6.778;2023-04-06T05:02:44;101226.94;;;5.57;46.38
22830;BME280;11581;51.250;6.778;2023-04-06T05:05:18;101288.06;;;5.92;46.47
22830;BME280;11581;51.250;6.778;2023-04-06T05:07:45;101287.97;;;5.93;46.57
22830;BME280;11581;51.250;6.778;2023-04-06T05:10:22;101259.72;;;5.81;46.57
22830;BME280;11581;51.250;6.778;2023-04-06T05:12:54;101228.31;;;5.50;46.53
22830;BME280;11581;51.250;6.778;2023-04-06T05:15:20;101300.47;;;6.04;46.83
22830;BME280;11581;51.250;6.778;2023-04-06T05:17:51;101277.19;;;5.96;47.07
22830;BME280;11581;51.250;6.778;2023-04-06T05:20:22;101267.03;;;6.03;47.35
22830;BME280;11581;51.250;6.778;2023-04-06T05:22:50;101290.28;;;6.35;47.33
22830;BME280;11581;51.250;6.778;2023-04-06T05:25:17;101248.56;;;6.26;47.27
22830;BME280;11581;51.250;6.778;2023-04-06T05:27:45;101298.31;;;6.71;47.28
22830;BME280;11581;51.250;6.778;2023-04-06T05:30:44;101238.94;;;6.61;46.83
22830;BME280;11581;51.250;6.778;2023-04-06T05:33:12;101276.09;;;7.09;46.53
22830;BME280;11581;51.250;6.778;2023-04-06T05:35:59;101281.66;;;7.40;46.64
22830;BME280;11581;51.250;6.778;2023-04-06T05:38:27;101240.03;;;7.30;46.45
22830;BME280;11581;51.250;6.778;2023-04-06T05:40:56;101245.44;;;7.63;46.45
22830;BME280;11581;51.250;6.778;2023-04-06T05:43:26;101295.16;;;8.17;46.01
22830;BME280;11581;51.250;6.778;2023-04-06T05:45:55;101289.53;;;8.44;45.87
22830;BME280;11581;51.250;6.778;2023-04-06T05:48:22;101293.38;;;8.73;45.65
22830;BME280;11581;51.250;6.778;2023-04-06T05:50:49;101210.59;;;8.55;45.34
22830;BME280;11581;51.250;6.778;2023-04-06T05:53:19;101262.19;;;9.18;44.85
22830;BME280;11581;51.250;6.778;2023-04-06T05:55:52;101297.94;;;9.67;44.91
22830;BME280;11581;51.250;6.778;2023-04-06T05:58:20;101288.06;;;9.99;44.57
22830;BME280;11581;51.250;6.778;2023-04-06T06:00:49;101260.41;;;10.11;43.72
22830;BME280;11581;51.250;6.778;2023-04-06T06:03:18;101109.75;;;9.57;43.02
22830;BME280;11581;51.250;6.778;2023-04-06T06:05:50;101262.06;;;10.82;42.86
22830;BME280;11581;51.250;6.778;2023-04-06T06:08:24;101250.59;;;11.10;42.23
22830;BME280;11581;51.250;6.778;2023-04-06T06:10:51;101276.91;;;11.53;41.78
22830;BME280;11581;51.250;6.778;2023-04-06T06:13:22;101282.41;;;11.80;41.25
22830;BME280;11581;51.250;6.778;2023-04-06T06:15:49;101277.28;;;12.05;40.58
22830;BME280;11581;51.250;6.778;2023-04-06T06:18:17;101274.13;;;12.29;40.01
22830;BME280;11581;51.250;6.778;2023-04-06T06:20:46;101246.28;;;12.31;39.77
22830;BME280;11581;51.250;6.778;2023-04-06T06:23:14;101280.72;;;12.71;39.49
22830;BME280;11581;51.250;6.778;2023-04-06T06:25:41;101261.19;;;12.88;39.69
22830;BME280;11581;51.250;6.778;2023-04-06T06:28:08;101269.28;;;13.23;39.51
22830;BME280;11581;51.250;6.778;2023-04-06T06:30:35;101268.94;;;13.53;39.32
22830;BME280;11581;51.250;6.778;2023-04-06T06:33:01;101247.31;;;13.72;39.19
22830;BME280;11581;51.250;6.778;2023-04-06T06:35:29;101249.72;;;14.09;37.92
22830;BME280;11581;51.250;6.778;2023-04-06T06:37:59;101273.38;;;14.56;37.26
22830;BME280;11581;51.250;6.778;2023-04-06T06:40:26;101276.84;;;14.82;37.92
22830;BME280;11581;51.250;6.778;2023-04-06T06:42:54;101249.88;;;15.00;37.55
22830;BME280;11581;51.250;6.778;2023-04-06T06:45:32;101268.81;;;15.48;37.26
22830;BME280;11581;51.250;6.778;2023-04-06T06:47:59;101269.81;;;15.87;37.09
22830;BME280;11581;51.250;6.778;2023-04-06T06:50:25;101265.03;;;16.29;36.57
22830;BME280;11581;51.250;6.778;2023-04-06T06:52:52;101218.44;;;16.37;35.40
22830;BME280;11581;51.250;6.778;2023-04-06T06:55:19;101211.38;;;16.74;34.62
22830;BME280;11581;51.250;6.778;2023-04-06T06:57:45;101262.38;;;17.37;34.24
22830;BME280;11581;51.250;6.778;2023-04-06T07:00:13;101266.03;;;17.66;33.98
22830;BME280;11581;51.250;6.778;2023-04-06T07:02:41;101249.19;;;17.87;33.42
22830;BME280;11581;51.250;6.778;2023-04-06T07:05:08;101235.84;;;18.08;33.32
22830;BME280;11581;51.250;6.778;2023-04-06T07:07:35;101232.16;;;18.38;33.11
22830;BME280;11581;51.250;6.778;2023-04-06T07:10:01;101238.56;;;18.81;32.74
22830;BME280;11581;51.250;6.778;2023-04-06T07:12:28;101257.03;;;19.27;32.58
22830;BME280;11581;51.250;6.778;2023-04-06T07:14:55;101251.16;;;19.66;32.43
22830;BME280;11581;51.250;6.778;2023-04-06T07:17:21;101251.06;;;20.02;31.76
22830;BME280;11581;51.250;6.778;2023-04-06T07:19:48;101256.00;;;20.47;31.35
22830;BME280;11581;51.250;6.778;2023-04-06T07:22:14;101245.75;;;20.83;30.74
22830;BME280;11581;51.250;6.778;2023-04-06T07:24:41;101247.97;;;21.20;30.64
22830;BME280;11581;51.250;6.778;2023-04-06T07:27:08;101240.97;;;21.58;30.15
22830;BME280;11581;51.250;6.778;2023-04-06T07:29:34;101238.72;;;21.94;29.67
22830;BME280;11581;51.250;6.778;2023-04-06T07:32:01;101219.91;;;22.06;28.03
22830;BME280;11581;51.250;6.778;2023-04-06T07:34:28;101174.78;;;21.85;26.57
22830;BME280;11581;51.250;6.778;2023-04-06T07:36:55;101245.81;;;22.08;26.37
22830;BME280;11581;51.250;6.778;2023-04-06T07:39:22;101185.84;;;21.57;26.78
22830;BME280;11581;51.250;6.778;2023-04-06T07:41:48;101123.63;;;21.10;27.45
22830;BME280;11581;51.250;6.778;2023-04-06T07:44:15;101216.16;;;21.67;28.44
22830;BME280;11581;51.250;6.778;2023-04-06T07:46:42;101241.84;;;21.98;28.13
22830;BME280;11581;51.250;6.778;2023-04-06T07:49:09;101226.38;;;22.18;27.82
22830;BME280;11581;51.250;6.778;2023-04-06T07:51:37;101228.41;;;22.48;27.13
22830;BME280;11581;51.250;6.778;2023-04-06T07:54:03;101231.47;;;22.71;27.38
22830;BME280;11581;51.250;6.778;2023-04-06T07:56:30;101239.75;;;22.96;27.29
22830;BME280;11581;51.250;6.778;2023-04-06T07:58:57;101140.94;;;22.71;27.11
22830;BME280;11581;51.250;6.778;2023-04-06T08:01:24;101237.44;;;23.43;26.16
22830;BME280;11581;51.250;6.778;2023-04-06T08:03:51;101227.59;;;23.42;25.61
22830;BME280;11581;51.250;6.778;2023-04-06T08:06:17;101174.09;;;23.30;25.16
22830;BME280;11581;51.250;6.778;2023-04-06T08:08:44;101194.13;;;23.35;24.96
22830;BME280;11581;51.250;6.778;2023-04-06T08:11:11;101219.69;;;23.34;24.99
22830;BME280;11581;51.250;6.778;2023-04-06T08:13:38;101180.94;;;23.01;24.98
22830;BME280;11581;51.250;6.778;2023-04-06T08:16:04;101162.03;;;22.75;24.93
22830;BME280;11581;51.250;6.778;2023-04-06T08:18:31;101195.84;;;22.86;24.93
22830;BME280;11581;51.250;6.778;2023-04-06T08:20:58;101221.13;;;22.93;25.45
22830;BME280;11581;51.250;6.778;2023-04-06T08:23:25;101231.19;;;22.92;25.31
22830;BME280;11581;51.250;6.778;2023-04-06T08:25:51;101204.06;;;22.79;25.03
22830;BME280;11581;51.250;6.778;2023-04-06T08:28:20;101178.66;;;22.54;25.20
22830;BME280;11581;51.250;6.778;2023-04-06T08:30:47;101234.34;;;22.89;25.28
22830;BME280;11581;51.250;6.778;2023-04-06T08:33:14;101181.53;;;22.66;25.22
22830;BME280;11581;51.250;6.778;2023-04-06T08:35:41;101222.56;;;23.02;25.38
22830;BME280;11581;51.250;6.778;2023-04-06T08:38:07;101050.91;;;22.04;25.07
22830;BME280;11581;51.250;6.778;2023-04-06T08:40:40;101144.31;;;22.66;23.48
22830;BME280;11581;51.250;6.778;2023-04-06T08:43:13;101166.78;;;22.86;24.02
22830;BME280;11581;51.250;6.778;2023-04-06T08:45:41;101236.91;;;23.28;25.48
22830;BME280;11581;51.250;6.778;2023-04-06T08:48:08;101189.56;;;23.29;25.81
22830;BME280;11581;51.250;6.778;2023-04-06T08:50:35;101207.56;;;23.61;25.83
22830;BME280;11581;51.250;6.778;2023-04-06T08:53:02;101218.41;;;23.92;25.68
22830;BME280;11581;51.250;6.778;2023-04-06T08:55:29;101199.47;;;24.04;24.84
22830;BME280;11581;51.250;6.778;2023-04-06T08:57:56;101204.69;;;24.24;24.65
22830;BME280;11581;51.250;6.778;2023-04-06T09:00:23;101215.63;;;24.42;24.30
22830;BME280;11581;51.250;6.778;2023-04-06T09:02:53;101189.13;;;24.31;23.01
22830;BME280;11581;51.250;6.778;2023-04-06T09:05:21;101211.03;;;24.42;23.82
22830;BME280;11581;51.250;6.778;2023-04-06T09:07:48;101177.59;;;24.11;23.44
22830;BME280;11581;51.250;6.778;2023-04-06T09:10:16;101214.41;;;24.20;22.54
22830;BME280;11581;51.250;6.778;2023-04-06T09:12:43;101208.72;;;24.03;23.44
22830;BME280;11581;51.250;6.778;2023-04-06T09:15:20;101200.50;;;23.78;22.57
22830;BME280;11581;51.250;6.778;2023-04-06T09:17:47;101144.59;;;23.20;23.62
22830;BME280;11581;51.250;6.778;2023-04-06T09:20:14;101202.31;;;23.35;23.79
22830;BME280;11581;51.250;6.778;2023-04-06T09:22:42;101168.88;;;22.84;24.04
22830;BME280;11581;51.250;6.778;2023-04-06T09:25:09;101201.88;;;22.94;24.34
22830;BME280;11581;51.250;6.778;2023-04-06T09:27:44;101211.59;;;22.77;24.18
22830;BME280;11581;51.250;6.778;2023-04-06T09:30:12;101206.63;;;22.61;24.16
22830;BME280;11581;51.250;6.778;2023-04-06T09:32:50;101205.84;;;22.41;23.16
22830;BME280;11581;51.250;6.778;2023-04-06T09:35:18;101203.59;;;22.25;24.33
22830;BME280;11581;51.250;6.778;2023-04-06T09:37:47;101178.78;;;21.89;24.39
22830;BME280;11581;51.250;6.778;2023-04-06T09:40:14;101201.75;;;21.93;24.78
22830;BME280;11581;51.250;6.778;2023-04-06T09:42:45;101207.19;;;21.80;24.35
22830;BME280;11581;51.250;6.778;2023-04-06T09:45:13;101117.19;;;21.31;24.94
22830;BME280;11581;51.250;6.778;2023-04-06T09:47:43;101137.66;;;21.40;24.29
22830;BME280;11581;51.250;6.778;2023-04-06T09:50:12;101189.63;;;21.63;24.74
22830;BME280;11581;51.250;6.778;2023-04-06T09:52:50;101182.72;;;21.60;24.32
22830;BME280;11581;51.250;6.778;2023-04-06T09:55:30;101191.06;;;21.65;24.32
22830;BME280;11581;51.250;6.778;2023-04-06T09:58:04;101186.31;;;21.74;24.50
22830;BME280;11581;51.250;6.778;2023-04-06T10:00:32;101180.22;;;21.85;25.56
22830;BME280;11581;51.250;6.778;2023-04-06T10:05:50;101167.84;;;22.22;24.55
22830;BME280;11581;51.250;6.778;2023-04-06T10:08:18;101161.13;;;22.37;25.69
22830;BME280;11581;51.250;6.778;2023-04-06T10:10:47;101191.56;;;22.65;25.31
22830;BME280;11581;51.250;6.778;2023-04-06T10:13:14;101189.22;;;22.75;24.66
22830;BME280;11581;51.250;6.778;2023-04-06T10:15:41;101181.94;;;22.69;24.29
22830;BME280;11581;51.250;6.778;2023-04-06T10:18:09;101180.09;;;22.63;24.37
22830;BME280;11581;51.250;6.778;2023-04-06T10:20:46;101186.59;;;22.49;23.78
22830;BME280;11581;51.250;6.778;2023-04-06T10:23:19;101124.03;;;22.05;23.65
22830;BME280;11581;51.250;6.778;2023-04-06T10:25:57;101198.13;;;22.32;24.11
22830;BME280;11581;51.250;6.778;2023-04-06T10:28:24;101186.25;;;22.20;25.22
22830;BME280;11581;51.250;6.778;2023-04-06T10:30:59;101175.00;;;22.03;23.94
22830;BME280;11581;51.250;6.778;2023-04-06T10:33:26;101184.81;;;21.98;25.12
22830;BME280;11581;51.250;6.778;2023-04-06T10:35:53;101182.09;;;21.91;25.50
22830;BME280;11581;51.250;6.778;2023-04-06T10:38:20;101183.81;;;21.79;25.54
22830;BME280;11581;51.250;6.778;2023-04-06T10:40:48;101160.78;;;21.49;25.73
22830;BME280;11581;51.250;6.778;2023-04-06T10:43:20;101164.97;;;21.45;24.97
22830;BME280;11581;51.250;6.778;2023-04-06T10:45:55;101186.28;;;21.48;25.74
22830;BME280;11581;51.250;6.778;2023-04-06T10:48:22;101162.06;;;21.40;26.77
22830;BME280;11581;51.250;6.778;2023-04-06T10:50:51;101173.53;;;21.68;26.67
22830;BME280;11581;51.250;6.778;2023-04-06T10:53:26;101167.91;;;21.82;25.91
22830;BME280;11581;51.250;6.778;2023-04-06T10:55:55;101182.47;;;22.14;26.58
22830;BME280;11581;51.250;6.778;2023-04-06T10:58:27;101185.53;;;22.44;25.57
22830;BME280;11581;51.250;6.778;2023-04-06T11:00:54;101174.59;;;22.70;26.43
22830;BME280;11581;51.250;6.778;2023-04-06T11:03:21;101184.38;;;22.84;26.13
22830;BME280;11581;51.250;6.778;2023-04-06T11:05:49;101159.97;;;23.08;25.84
22830;BME280;11581;51.250;6.778;2023-04-06T11:08:26;101170.31;;;23.31;24.86
22830;BME280;11581;51.250;6.778;2023-04-06T11:11:13;101116.78;;;23.18;24.89
22830;BME280;11581;51.250;6.778;2023-04-06T11:13:43;101173.47;;;23.52;24.88
22830;BME280;11581;51.250;6.778;2023-04-06T11:16:17;101168.53;;;23.43;24.21
22830;BME280;11581;51.250;6.778;2023-04-06T11:18:58;101182.81;;;23.38;24.40
22830;BME280;11581;51.250;6.778;2023-04-06T11:21:42;101180.59;;;23.22;24.81
22830;BME280;11581;51.250;6.778;2023-04-06T11:24:20;101179.03;;;23.02;24.38
22830;BME280;11581;51.250;6.778;2023-04-06T11:26:58;101168.94;;;22.71;24.75
22830;BME280;11581;51.250;6.778;2023-04-06T11:29:27;101177.81;;;22.54;25.53
22830;BME280;11581;51.250;6.778;2023-04-06T11:32:02;101161.16;;;22.24;25.24
22830;BME280;11581;51.250;6.778;2023-04-06T11:34:35;101110.69;;;21.71;26.11
22830;BME280;11581;51.250;6.778;2023-04-06T11:37:03;101173.34;;;21.89;26.60
22830;BME280;11581;51.250;6.778;2023-04-06T11:39:31;101177.09;;;21.68;26.51
22830;BME280;11581;51.250;6.778;2023-04-06T11:42:02;101165.59;;;21.40;26.18
22830;BME280;11581;51.250;6.778;2023-04-06T11:44:34;101167.44;;;21.27;26.39
22830;BME280;11581;51.250;6.778;2023-04-06T11:47:02;101170.78;;;21.09;27.39
22830;BME280;11581;51.250;6.778;2023-04-06T11:49:30;101134.78;;;20.75;27.61
22830;BME280;11581;51.250;6.778;2023-04-06T11:51:58;101095.91;;;20.42;28.11
22830;BME280;11581;51.250;6.778;2023-04-06T11:54:33;101150.19;;;20.61;27.72
22830;BME280;11581;51.250;6.778;2023-04-06T11:57:00;101169.81;;;20.70;29.16
22830;BME280;11581;51.250;6.778;2023-04-06T11:59:27;101139.75;;;20.65;28.88
22830;BME280;11581;51.250;6.778;2023-04-06T12:01:55;101155.03;;;20.79;28.94
22830;BME280;11581;51.250;6.778;2023-04-06T12:04:22;101161.72;;;20.83;29.14
22830;BME280;11581;51.250;6.778;2023-04-06T12:06:49;101143.13;;;20.80;29.07
22830;BME280;11581;51.250;6.778;2023-04-06T12:09:18;101154.00;;;20.86;28.54
22830;BME280;11581;51.250;6.778;2023-04-06T12:11:45;101143.38;;;20.91;29.03
22830;BME280;11581;51.250;6.778;2023-04-06T12:14:12;101155.94;;;20.99;28.94
22830;BME280;11581;51.250;6.778;2023-04-06T12:16:39;101164.09;;;20.99;29.16
22830;BME280;11581;51.250;6.778;2023-04-06T12:19:06;101134.41;;;20.91;29.47
22830;BME280;11581;51.250;6.778;2023-04-06T12:21:34;101140.69;;;20.98;29.63
22830;BME280;11581;51.250;6.778;2023-04-06T12:24:01;101149.28;;;21.01;29.14
22830;BME280;11581;51.250;6.778;2023-04-06T12:26:29;101056.72;;;20.44;28.87
22830;BME280;11581;51.250;6.778;2023-04-06T12:28:56;101135.44;;;20.90;28.19
22830;BME280;11581;51.250;6.778;2023-04-06T12:31:28;101010.31;;;20.07;28.06
22830;BME280;11581;51.250;6.778;2023-04-06T12:33:54;101121.38;;;20.60;27.89
22830;BME280;11581;51.250;6.778;2023-04-06T12:36:21;101143.72;;;20.62;28.39
22830;BME280;11581;51.250;6.778;2023-04-06T12:38:48;101139.50;;;20.47;28.45
22830;BME280;11581;51.250;6.778;2023-04-06T12:41:16;101152.56;;;20.37;28.88
22830;BME280;11581;51.250;6.778;2023-04-06T12:43:43;101126.22;;;20.18;28.67
22830;BME280;11581;51.250;6.778;2023-04-06T12:46:11;101071.41;;;19.81;29.05
22830;BME280;11581;51.250;6.778;2023-04-06T12:48:38;101145.19;;;20.18;28.82
22830;BME280;11581;51.250;6.778;2023-04-06T12:51:05;101139.28;;;20.08;28.51
22830;BME280;11581;51.250;6.778;2023-04-06T12:53:35;100996.84;;;19.11;28.47
22830;BME280;11581;51.250;6.778;2023-04-06T12:56:02;;;;19.90;
22830;BME280;11581;51.250;6.778;2023-04-06T12:58:36;101145.97;;;19.84;29.32
22830;BME280;11581;51.250;6.778;2023-04-06T13:01:06;101148.63;;;19.77;29.19
22830;BME280;11581;51.250;6.778;2023-04-06T13:03:33;101147.56;;;19.72;29.79
22830;BME280;11581;51.250;6.778;2023-04-06T13:06:00;101073.50;;;19.24;30.41
22830;BME280;11581;51.250;6.778;2023-04-06T13:08:27;101035.03;;;19.01;30.28